Time;durP1;ratioP1;P1;durP2;ratioP2;P2;SDS_P1;SDS_P2;PMS_P1;PMS_P2;Temp;Humidity;BMP_temperature;BMP_pressure;BME280_temperature;BME280_humidity;BME280_pressure;Samples;Min_cycle;Max_cycle;Signal;HPM_P1;HPM_P2
2021/04/11 00:02:00;;;;;;;7.17;3.30;;;;;;;7.74;100.00;100823.72;5073348;28;20445;-68
2021/04/11 00:04:26;;;;;;;2.47;1.50;;;;;;;7.78;100.00;100810.50;5073439;28;20560;-69
2021/04/11 00:06:52;;;;;;;2.83;2.50;;;;;;;7.77;100.00;100820.47;5073120;28;20457;-68
2021/04/11 00:09:19;;;;;;;7.50;4.90;;;;;;;7.80;100.00;100803.75;5074411;28;20494;-69
2021/04/11 00:11:45;;;;;;;3.37;2.60;;;;;;;7.82;100.00;100808.84;5077421;28;20464;-68
2021/04/11 00:14:11;;;;;;;6.47;4.53;;;;;;;7.83;100.00;100805.06;5077128;28;20865;-68
2021/04/11 00:16:37;;;;;;;5.03;4.07;;;;;;;7.81;100.00;100789.19;5076847;28;21024;-68
2021/04/11 00:19:03;;;;;;;5.87;2.40;;;;;;;7.77;100.00;100779.22;5077290;28;20499;-68
2021/04/11 00:21:30;;;;;;;10.63;5.50;;;;;;;7.75;100.00;100771.44;5077243;28;20499;-68
2021/04/11 00:23:56;;;;;;;7.87;4.40;;;;;;;7.73;100.00;100768.19;5077266;28;20467;-69
2021/04/11 00:26:22;;;;;;;7.00;3.43;;;;;;;7.74;100.00;100763.59;5077135;28;20489;-68
2021/04/11 00:28:48;;;;;;;4.47;3.60;;;;;;;7.70;100.00;100762.53;5077088;28;20474;-68
2021/04/11 00:31:14;;;;;;;3.57;2.30;;;;;;;7.68;100.00;100751.22;5076894;28;20958;-68
2021/04/11 00:33:43;;;;;;;5.53;4.80;;;;;;;7.63;100.00;100754.75;5077023;28;20472;-69
2021/04/11 00:36:12;;;;;;;4.63;2.10;;;;;;;7.59;100.00;100754.50;5076989;28;20465;-70
2021/04/11 00:38:39;;;;;;;3.90;3.07;;;;;;;7.58;100.00;100754.78;5076376;28;20919;-69
2021/04/11 00:41:13;;;;;;;4.17;2.83;;;;;;;7.61;100.00;100754.22;5076667;28;20448;-70
2021/04/11 00:43:39;;;;;;;4.00;3.07;;;;;;;7.61;100.00;100745.31;5076847;28;20413;-71
2021/04/11 00:46:15;;;;;;;5.97;2.60;;;;;;;7.56;100.00;100743.47;5076792;28;20834;-69
2021/04/11 00:48:41;;;;;;;10.93;5.20;;;;;;;7.55;100.00;100745.34;5076813;28;20425;-70
2021/04/11 00:51:10;;;;;;;5.17;3.90;;;;;;;7.64;100.00;100740.19;5076393;28;20516;-70
2021/04/11 00:53:36;;;;;;;3.30;2.30;;;;;;;7.69;100.00;100737.47;5076630;28;20444;-70
2021/04/11 00:56:04;;;;;;;3.80;3.27;;;;;;;7.69;100.00;100732.06;5076534;28;21007;-69
2021/04/11 00:58:31;;;;;;;2.93;2.10;;;;;;;7.70;100.00;100731.00;5076405;28;20550;-69
2021/04/11 01:00:57;;;;;;;7.20;3.60;;;;;;;7.67;100.00;100726.16;5076140;28;20946;-69
2021/04/11 01:03:26;;;;;;;9.13;5.93;;;;;;;7.74;100.00;100725.84;5076440;28;20445;-69
2021/04/11 01:05:53;;;;;;;3.73;2.60;;;;;;;7.70;100.00;100716.69;5075987;28;20465;-69
2021/04/11 01:08:22;;;;;;;4.03;3.10;;;;;;;7.73;100.00;100719.66;5076136;28;20896;-69
2021/04/11 01:11:02;;;;;;;8.10;2.80;;;;;;;7.77;100.00;100726.09;5076415;28;20437;-69
2021/04/11 01:13:30;;;;;;;9.23;4.07;;;;;;;7.79;100.00;100717.72;5076667;28;20479;-69
2021/04/11 01:15:57;;;;;;;3.93;3.57;;;;;;;7.82;100.00;100717.97;5075848;28;21005;-69
2021/04/11 01:18:23;;;;;;;7.47;4.53;;;;;;;7.80;100.00;100712.06;5076068;28;20488;-69
2021/04/11 01:20:50;;;;;;;3.63;3.00;;;;;;;7.75;100.00;100717.50;5075026;28;20437;-69
2021/04/11 01:23:24;;;;;;;7.90;4.07;;;;;;;7.79;100.00;100710.47;5076147;28;20495;-69
2021/04/11 01:25:55;;;;;;;7.67;4.87;;;;;;;7.77;100.00;100709.13;5076064;28;20517;-69
2021/04/11 01:28:24;;;;;;;6.90;2.93;;;;;;;7.75;100.00;100706.72;5076043;28;20421;-69
2021/04/11 01:30:54;;;;;;;6.40;3.80;;;;;;;7.72;100.00;100699.16;5075935;28;20442;-69
2021/04/11 01:33:22;;;;;;;5.50;4.10;;;;;;;7.71;100.00;100696.78;5076048;28;20483;-70
2021/04/11 01:35:52;;;;;;;6.40;4.67;;;;;;;7.76;100.00;100697.53;5075940;28;20458;-70
2021/04/11 01:38:19;;;;;;;6.07;5.13;;;;;;;7.75;100.00;100693.22;5075631;28;20481;-72
2021/04/11 01:40:54;;;;;;;5.13;3.00;;;;;;;7.69;100.00;100675.47;5075630;28;20942;-70
2021/04/11 01:43:21;;;;;;;13.87;9.60;;;;;;;7.71;100.00;100686.78;5075783;28;20433;-70
2021/04/11 01:45:48;;;;;;;7.73;4.90;;;;;;;7.76;100.00;100675.16;5075602;28;20461;-70
2021/04/11 01:48:15;;;;;;;13.27;6.50;;;;;;;7.74;100.00;100677.31;5075616;28;20477;-69
2021/04/11 01:50:42;;;;;;;5.23;3.60;;;;;;;7.78;100.00;100673.78;5075836;28;20444;-69
2021/04/11 01:53:09;;;;;;;7.87;3.63;;;;;;;7.79;100.00;100669.19;5075479;28;20448;-69
2021/04/11 01:55:36;;;;;;;4.67;3.13;;;;;;;7.73;100.00;100663.03;5075133;28;20966;-70
2021/04/11 01:58:03;;;;;;;5.33;3.60;;;;;;;7.81;100.00;100654.34;5075407;28;20480;-70
2021/04/11 02:00:31;;;;;;;16.80;6.10;;;;;;;7.84;100.00;100653.81;5075392;28;20449;-70
2021/04/11 02:03:00;;;;;;;9.33;5.37;;;;;;;7.87;100.00;100657.00;5075336;28;20448;-70
2021/04/11 02:05:26;;;;;;;5.23;4.73;;;;;;;7.89;100.00;100644.06;5075051;28;20452;-70
2021/04/11 02:07:55;;;;;;;4.97;3.87;;;;;;;7.88;100.00;100647.81;5075360;28;20442;-70
2021/04/11 02:10:26;;;;;;;6.60;3.10;;;;;;;7.89;100.00;100644.06;5075493;28;20437;-70
2021/04/11 02:12:53;;;;;;;4.43;3.80;;;;;;;7.87;100.00;100640.81;5075301;28;20429;-70
2021/04/11 02:15:22;;;;;;;4.43;3.33;;;;;;;7.86;100.00;100641.91;5074958;28;20472;-70
2021/04/11 02:17:48;;;;;;;14.63;6.10;;;;;;;7.91;100.00;100648.06;5074965;28;20468;-70
2021/04/11 02:20:15;;;;;;;4.87;1.90;;;;;;;7.87;100.00;100641.63;5075030;28;20446;-70
2021/04/11 02:22:42;;;;;;;14.73;4.53;;;;;;;7.80;100.00;100633.88;5074957;28;20448;-70
2021/04/11 02:25:14;;;;;;;14.93;4.60;;;;;;;7.80;100.00;100635.78;5074887;28;20532;-70
2021/04/11 02:27:40;;;;;;;7.10;4.57;;;;;;;7.80;100.00;100630.38;5074613;28;20421;-70
2021/04/11 02:30:09;;;;;;;12.37;7.50;;;;;;;7.82;100.00;100628.19;5074822;28;20441;-70
2021/04/11 02:32:36;;;;;;;6.97;3.40;;;;;;;7.87;100.00;100619.25;5074518;28;20448;-70
2021/04/11 02:35:03;;;;;;;7.73;3.60;;;;;;;7.81;100.00;100622.00;5074787;28;20495;-70
2021/04/11 02:37:33;;;;;;;5.43;3.37;;;;;;;7.81;100.00;100615.81;5074597;28;20481;-69
2021/04/11 02:40:00;;;;;;;8.50;2.93;;;;;;;7.83;100.00;100617.16;5074734;28;20426;-70
2021/04/11 02:42:28;;;;;;;9.00;3.17;;;;;;;7.90;100.00;100608.72;5074491;28;20819;-70
2021/04/11 02:44:56;;;;;;;7.63;4.37;;;;;;;7.84;100.00;100597.19;5074642;28;20454;-70
2021/04/11 02:47:23;;;;;;;25.10;7.00;;;;;;;7.83;100.00;100603.66;5074358;28;20468;-69
2021/04/11 02:49:52;;;;;;;7.53;4.90;;;;;;;7.84;100.00;100610.66;5074442;28;20450;-69
2021/04/11 02:52:23;;;;;;;9.50;3.80;;;;;;;7.89;100.00;100603.63;5074294;28;20434;-69
2021/04/11 02:54:50;;;;;;;8.60;3.13;;;;;;;7.91;100.00;100604.13;5074398;28;20425;-69
2021/04/11 02:57:17;;;;;;;13.33;6.70;;;;;;;7.83;100.00;100587.47;5074169;28;20492;-69
2021/04/11 02:59:45;;;;;;;10.27;5.90;;;;;;;7.82;100.00;100579.66;5073980;28;20946;-69
2021/04/11 03:02:11;;;;;;;5.90;4.73;;;;;;;7.84;100.00;100572.91;5074362;28;20440;-69
2021/04/11 03:04:37;;;;;;;3.40;2.17;;;;;;;7.82;100.00;100568.88;5074190;28;20444;-69
2021/04/11 03:07:10;;;;;;;8.03;2.90;;;;;;;7.84;100.00;100566.72;5073735;28;20454;-69
2021/04/11 03:09:40;;;;;;;4.30;3.50;;;;;;;7.78;100.00;100568.63;5074281;28;20438;-70
2021/04/11 03:12:09;;;;;;;6.03;2.97;;;;;;;7.82;100.00;100569.66;5073974;28;20449;-69
2021/04/11 03:14:37;;;;;;;8.33;3.37;;;;;;;7.75;100.00;100558.44;5074002;28;20449;-70
2021/04/11 03:17:05;;;;;;;12.73;3.23;;;;;;;7.82;100.00;100558.09;5073398;28;20497;-69
2021/04/11 03:19:34;;;;;;;9.93;7.80;;;;;;;7.76;100.00;100567.31;5073526;28;20872;-69
2021/04/11 03:22:01;;;;;;;8.93;3.93;;;;;;;7.77;100.00;100560.81;5073712;28;20479;-69
2021/04/11 03:24:28;;;;;;;12.53;4.80;;;;;;;7.75;100.00;100569.22;5073476;28;20962;-69
2021/04/11 03:27:03;;;;;;;5.63;3.23;;;;;;;7.75;100.00;100558.44;5073777;28;20461;-70
2021/04/11 03:29:34;;;;;;;7.90;5.40;;;;;;;7.78;100.00;100557.84;5073466;28;20436;-69
2021/04/11 03:32:06;;;;;;;10.00;5.17;;;;;;;7.73;100.00;100549.00;5073663;28;20437;-69
2021/04/11 03:34:34;;;;;;;7.17;4.23;;;;;;;7.78;100.00;100543.56;5073717;28;20471;-69
2021/04/11 03:37:02;;;;;;;15.40;6.43;;;;;;;7.79;100.00;100540.59;5073542;28;20485;-69
2021/04/11 03:39:32;;;;;;;6.80;5.20;;;;;;;7.84;100.00;100535.16;5073613;28;20440;-70
2021/04/11 03:41:58;;;;;;;11.00;3.77;;;;;;;7.82;100.00;100534.63;5073523;28;20475;-69
2021/04/11 03:44:25;;;;;;;15.63;7.60;;;;;;;7.84;100.00;100535.16;5072949;28;20436;-70
2021/04/11 03:46:56;;;;;;;9.23;5.00;;;;;;;7.86;100.00;100537.56;5073476;28;20468;-69
2021/04/11 03:49:28;;;;;;;9.87;4.50;;;;;;;7.87;100.00;100539.16;5073430;28;20480;-70
2021/04/11 03:51:58;;;;;;;7.87;4.57;;;;;;;7.91;100.00;100537.50;5073537;28;20425;-69
2021/04/11 03:54:28;;;;;;;12.03;5.17;;;;;;;7.95;100.00;100535.06;5073046;28;20939;-70
2021/04/11 03:57:07;;;;;;;6.53;3.10;;;;;;;7.86;100.00;100532.16;5073056;28;21029;-69
2021/04/11 03:59:36;;;;;;;4.47;3.23;;;;;;;7.87;100.00;100535.66;5073405;28;20478;-70
2021/04/11 04:02:05;;;;;;;13.93;7.13;;;;;;;7.84;100.00;100529.75;5073479;28;20449;-70
2021/04/11 04:04:33;;;;;;;11.50;6.10;;;;;;;7.84;100.00;100534.34;5073490;28;20449;-70
2021/04/11 04:07:08;;;;;;;6.60;4.00;;;;;;;7.88;100.00;100518.38;5073152;28;20518;-69
2021/04/11 04:09:34;;;;;;;7.67;4.27;;;;;;;7.91;100.00;100517.81;5073281;28;20432;-70
2021/04/11 04:12:21;;;;;;;7.70;5.37;;;;;;;7.90;100.00;100508.13;5073334;28;20791;-69
2021/04/11 04:14:58;;;;;;;7.00;4.80;;;;;;;7.90;100.00;100505.44;5073207;28;20434;-69
2021/04/11 04:17:34;;;;;;;10.17;7.40;;;;;;;7.86;100.00;100497.09;5072611;28;20485;-69
2021/04/11 04:20:09;;;;;;;15.03;7.03;;;;;;;7.91;100.00;100505.16;5073242;28;20417;-69
2021/04/11 04:22:44;;;;;;;10.97;7.83;;;;;;;7.88;100.00;100496.81;5073089;28;20474;-69
2021/04/11 04:25:20;;;;;;;10.90;6.53;;;;;;;7.87;100.00;100506.78;5073078;28;20478;-69
2021/04/11 04:28:05;;;;;;;18.90;7.03;;;;;;;7.90;100.00;100500.03;5072873;28;20429;-69
2021/04/11 04:30:45;;;;;;;12.20;7.50;;;;;;;7.93;100.00;100499.47;5073046;28;20456;-69
2021/04/11 04:33:22;;;;;;;19.03;8.50;;;;;;;7.89;100.00;100498.44;5073099;28;20436;-69
2021/04/11 04:35:55;;;;;;;19.07;10.50;;;;;;;7.95;100.00;100500.00;5072924;28;20473;-69
2021/04/11 04:38:25;;;;;;;12.03;6.23;;;;;;;8.00;100.00;100505.31;5072931;28;20469;-70
2021/04/11 04:41:10;;;;;;;9.27;5.37;;;;;;;8.04;100.00;100506.38;5072952;28;20453;-69
2021/04/11 04:43:48;;;;;;;7.20;5.00;;;;;;;8.11;100.00;100517.63;5072952;28;20479;-69
2021/04/11 04:46:19;;;;;;;13.10;9.37;;;;;;;8.11;100.00;100506.84;5072868;28;20518;-69
2021/04/11 04:48:53;;;;;;;20.17;9.83;;;;;;;8.14;100.00;100514.34;5072949;28;20421;-69
2021/04/11 04:51:26;;;;;;;7.93;6.83;;;;;;;8.19;100.00;100514.31;5072992;28;20479;-70
2021/04/11 04:53:59;;;;;;;13.00;10.17;;;;;;;8.22;100.00;100515.63;5072910;28;20430;-69
2021/04/11 04:56:32;;;;;;;13.40;8.30;;;;;;;8.19;100.00;100508.09;5075601;28;20461;-69
2021/04/11 04:59:04;;;;;;;18.43;9.17;;;;;;;8.21;100.00;100504.03;5076688;28;20465;-70
2021/04/11 05:01:34;;;;;;;7.93;6.70;;;;;;;8.20;100.00;100497.03;5076515;28;20437;-70
2021/04/11 05:04:04;;;;;;;11.17;6.20;;;;;;;8.20;100.00;100501.63;5076287;28;20433;-69
2021/04/11 05:06:35;;;;;;;18.57;9.67;;;;;;;8.23;100.00;100504.53;5076607;28;20457;-69
2021/04/11 05:09:07;;;;;;;14.27;7.47;;;;;;;8.25;100.00;100499.66;5076418;28;20426;-71
2021/04/11 05:11:37;;;;;;;6.80;5.70;;;;;;;8.23;100.00;100491.03;5076342;28;20417;-70
2021/04/11 05:14:08;;;;;;;10.90;7.80;;;;;;;8.23;100.00;100495.63;5075997;28;20938;-70
2021/04/11 05:16:38;;;;;;;9.77;7.70;;;;;;;8.17;100.00;100486.00;5076027;28;20476;-69
2021/04/11 05:19:08;;;;;;;9.93;6.67;;;;;;;8.18;100.00;100490.28;5076248;28;20450;-69
2021/04/11 05:21:37;;;;;;;20.07;8.20;;;;;;;8.16;100.00;100497.88;5076715;28;20438;-70
2021/04/11 05:24:08;;;;;;;8.27;6.97;;;;;;;8.15;100.00;100490.88;5075909;28;20942;-70
2021/04/11 05:26:42;;;;;;;9.70;7.47;;;;;;;8.14;100.00;100489.25;5076056;28;20453;-70
2021/04/11 05:29:17;;;;;;;14.43;8.73;;;;;;;8.18;100.00;100480.31;5076232;28;20426;-69
2021/04/11 05:31:44;;;;;;;14.47;8.70;;;;;;;8.25;100.00;100479.97;5075966;28;20474;-70
2021/04/11 05:34:13;;;;;;;12.87;7.80;;;;;;;8.29;100.00;100479.09;5076095;28;20438;-69
2021/04/11 05:36:49;;;;;;;16.37;8.80;;;;;;;8.33;100.00;100480.13;5075921;28;20450;-69
2021/04/11 05:39:26;;;;;;;16.47;8.40;;;;;;;8.40;100.00;100489.81;5075906;28;20519;-69
2021/04/11 05:42:00;;;;;;;18.00;9.43;;;;;;;8.50;100.00;100486.97;5075788;28;20479;-69
2021/04/11 05:44:35;;;;;;;12.10;7.50;;;;;;;8.51;100.00;100486.69;5075697;28;20426;-69
2021/04/11 05:47:10;;;;;;;25.30;9.00;;;;;;;8.51;100.00;100483.19;5075881;28;20484;-69
2021/04/11 05:49:45;;;;;;;14.47;9.80;;;;;;;8.49;100.00;100488.06;5075624;28;20425;-69
2021/04/11 05:52:18;;;;;;;17.27;8.30;;;;;;;8.50;100.00;100481.56;5075560;28;20476;-69
2021/04/11 05:54:49;;;;;;;12.63;7.53;;;;;;;8.53;100.00;100475.59;5075350;28;20442;-69
2021/04/11 05:57:21;;;;;;;12.70;8.77;;;;;;;8.53;100.00;100472.91;5075429;28;20485;-69
2021/04/11 05:59:52;;;;;;;13.90;8.70;;;;;;;8.55;100.00;100471.53;5075541;28;20433;-70
2021/04/11 06:02:26;;;;;;;16.37;9.43;;;;;;;8.56;100.00;100473.13;5075543;28;20517;-69
2021/04/11 06:04:55;;;;;;;14.80;6.07;;;;;;;8.58;100.00;100480.94;5075422;28;20453;-70
2021/04/11 06:07:26;;;;;;;21.53;7.60;;;;;;;8.49;100.00;100469.19;5074771;28;20457;-70
2021/04/11 06:09:59;;;;;;;14.00;8.90;;;;;;;8.47;100.00;100455.19;5075314;28;20426;-70
2021/04/11 06:12:31;;;;;;;15.17;7.37;;;;;;;8.50;100.00;100449.19;5075295;28;20433;-70
2021/04/11 06:15:06;;;;;;;20.40;10.13;;;;;;;8.49;100.00;100453.78;5075152;28;20495;-69
2021/04/11 06:17:32;;;;;;;17.77;10.00;;;;;;;8.64;100.00;100452.78;5074897;28;20851;-69
2021/04/11 06:19:58;;;;;;;18.60;11.90;;;;;;;8.74;100.00;100449.13;5074996;28;20445;-70
2021/04/11 06:22:31;;;;;;;19.33;11.80;;;;;;;8.87;100.00;100442.19;5074975;28;20437;-70
2021/04/11 06:25:04;;;;;;;11.50;7.37;;;;;;;8.99;100.00;100442.56;5075056;28;20437;-70
2021/04/11 06:27:43;;;;;;;17.73;9.93;;;;;;;9.06;100.00;100438.38;5074561;28;20820;-68
2021/04/11 06:30:15;;;;;;;21.60;10.60;;;;;;;9.07;100.00;100436.47;5074981;28;20440;-69
2021/04/11 06:32:50;;;;;;;21.50;10.43;;;;;;;9.05;100.00;100436.78;5074916;28;20430;-64
2021/04/11 06:35:22;;;;;;;24.83;11.30;;;;;;;9.14;100.00;100430.72;5074718;28;20437;-67
2021/04/11 06:37:53;;;;;;;14.33;9.70;;;;;;;9.14;100.00;100426.09;5074641;28;20488;-65
2021/04/11 06:40:35;;;;;;;16.70;8.67;;;;;;;9.13;100.00;100440.72;5074363;28;20432;-64
2021/04/11 06:43:19;;;;;;;14.43;7.40;;;;;;;9.09;100.00;100437.00;5074379;28;20898;-64
2021/04/11 06:45:54;;;;;;;15.53;9.10;;;;;;;8.97;100.00;100433.94;5074109;28;21012;-66
2021/04/11 06:48:42;;;;;;;20.93;9.93;;;;;;;8.93;100.00;100436.41;5074474;28;20504;-65
2021/04/11 06:51:28;;;;;;;12.73;9.17;;;;;;;8.91;100.00;100429.72;5074498;28;20425;-67
2021/04/11 06:54:42;;;;;;;9.30;4.97;;;;;;;8.91;100.00;100435.13;5074523;28;20428;-68
2021/04/11 06:57:37;;;;;;;14.90;8.93;;;;;;;8.88;100.00;100433.00;5074134;28;20465;-66
2021/04/11 07:00:15;;;;;;;8.13;5.80;;;;;;;8.88;100.00;100428.41;5071480;28;20457;-67
2021/04/11 07:03:32;;;;;;;15.17;8.63;;;;;;;8.91;100.00;100427.81;5074190;28;20421;-67
2021/04/11 07:06:48;;;;;;;10.40;8.17;;;;;;;9.02;100.00;100426.56;5074150;28;20465;-66
2021/04/11 07:09:43;;;;;;;31.23;7.50;;;;;;;9.17;100.00;100430.94;5074083;28;20461;-67
2021/04/11 07:12:44;;;;;;;8.87;5.63;;;;;;;9.19;100.00;100422.50;5073638;28;20445;-67
2021/04/11 07:15:24;;;;;;;13.80;7.77;;;;;;;9.29;100.00;100430.44;5073897;28;20459;-67
2021/04/11 07:18:18;;;;;;;14.77;6.70;;;;;;;9.27;100.00;100428.03;5073890;28;20469;-66
2021/04/11 07:21:31;;;;;;;12.00;7.00;;;;;;;9.32;100.00;100427.97;5073681;28;20418;-67
2021/04/11 07:24:36;;;;;;;6.63;5.67;;;;;;;9.48;100.00;100439.31;5073808;28;20430;-66
2021/04/11 07:27:13;;;;;;;13.77;5.70;;;;;;;9.52;100.00;100436.84;5073705;28;20468;-67
2021/04/11 07:29:55;;;;;;;4.93;3.70;;;;;;;9.59;100.00;100434.53;5073960;28;20429;-67
2021/04/11 07:32:41;;;;;;;14.37;8.13;;;;;;;9.70;100.00;100427.84;5073727;28;20433;-67
2021/04/11 07:35:29;;;;;;;11.60;6.17;;;;;;;9.75;100.00;100424.25;5073751;28;20426;-67
2021/04/11 07:38:29;;;;;;;16.00;6.50;;;;;;;9.69;100.00;100422.72;5073259;28;21047;-67
2021/04/11 07:41:15;;;;;;;6.17;4.70;;;;;;;9.72;100.00;100420.22;5071719;28;20515;-67
2021/04/11 07:44:01;;;;;;;6.00;5.40;;;;;;;9.78;100.00;100432.56;5073547;28;20430;-67
2021/04/11 07:46:46;;;;;;;9.07;4.63;;;;;;;10.02;99.71;100445.09;5073555;28;20476;-67
2021/04/11 07:49:44;;;;;;;10.10;7.80;;;;;;;10.23;99.14;100443.59;5073470;28;20418;-67
2021/04/11 07:52:36;;;;;;;10.30;6.50;;;;;;;10.32;96.93;100438.31;5069922;28;20460;-67
2021/04/11 07:55:16;;;;;;;14.23;6.33;;;;;;;10.53;96.76;100438.66;5073315;28;20887;-67
2021/04/11 07:58:11;;;;;;;14.93;8.03;;;;;;;10.76;96.57;100450.34;5073038;28;20981;-67
2021/04/11 08:01:03;;;;;;;17.60;10.87;;;;;;;10.83;95.50;100440.69;5073390;28;20430;-67
2021/04/11 08:04:14;;;;;;;14.23;8.33;;;;;;;11.03;94.95;100438.63;5103100;22;20492;-70
2021/04/11 08:07:10;;;;;;;14.67;9.77;;;;;;;11.16;94.18;100432.34;5030875;28;20442;-71
2021/04/11 08:09:47;;;;;;;12.73;7.70;;;;;;;11.37;93.90;100430.69;5078705;28;20459;-71
2021/04/11 08:12:34;;;;;;;11.33;7.60;;;;;;;11.33;92.29;100429.75;5093356;28;20432;-71
2021/04/11 08:15:14;;;;;;;12.30;7.90;;;;;;;11.52;92.47;100426.00;5092976;28;21021;-71
2021/04/11 08:17:59;;;;;;;15.83;5.60;;;;;;;11.67;91.15;100425.59;5092241;28;20498;-70
2021/04/11 08:20:48;;;;;;;6.67;4.10;;;;;;;11.86;90.44;100433.53;5092865;28;20990;-70
2021/04/11 08:23:46;;;;;;;11.93;7.80;;;;;;;12.05;90.67;100436.00;5089802;28;20533;-72
2021/04/11 08:26:30;;;;;;;11.40;7.27;;;;;;;12.13;89.34;100427.09;5092852;28;20871;-68
2021/04/11 08:29:31;;;;;;;8.53;4.80;;;;;;;12.32;89.28;100435.75;5099194;28;20424;-71
2021/04/11 08:32:15;;;;;;;21.67;6.77;;;;;;;12.43;88.24;100427.31;5091554;28;20459;-72
2021/04/11 08:35:17;;;;;;;8.17;6.93;;;;;;;12.56;87.73;100421.72;5097174;28;20463;-73
2021/04/11 08:38:22;;;;;;;6.20;4.83;;;;;;;12.70;86.49;100410.72;5075395;28;21003;-72
2021/04/11 08:41:13;;;;;;;7.07;5.60;;;;;;;12.78;86.93;100411.84;5096760;28;20913;-70
2021/04/11 08:43:54;;;;;;;18.70;6.20;;;;;;;12.75;85.35;100405.13;5096969;28;20460;-71
2021/04/11 08:46:33;;;;;;;10.43;6.50;;;;;;;12.79;84.44;100411.53;5097200;28;20493;-71
2021/04/11 08:49:08;;;;;;;10.43;6.10;;;;;;;12.90;85.90;100400.31;5096918;28;20416;-71
2021/04/11 08:51:45;;;;;;;13.60;7.23;;;;;;;12.98;84.18;100407.69;5097170;28;20418;-71
2021/04/11 08:54:39;;;;;;;12.43;5.93;;;;;;;12.90;84.56;100403.03;5096746;28;20460;-71
2021/04/11 08:57:14;;;;;;;6.53;4.60;;;;;;;12.83;85.23;100400.78;5096706;28;20429;-70
2021/04/11 08:59:54;;;;;;;10.10;5.70;;;;;;;12.72;84.89;100397.63;5096788;28;20494;-71
2021/04/11 09:02:39;;;;;;;8.57;3.63;;;;;;;12.72;84.85;100389.47;5096665;28;20478;-71
2021/04/11 09:05:16;;;;;;;10.90;5.83;;;;;;;13.00;85.09;100397.28;5096136;28;20472;-71
2021/04/11 09:08:04;;;;;;;5.60;4.40;;;;;;;13.31;84.75;100402.53;5096344;28;20421;-71
2021/04/11 09:10:50;;;;;;;4.10;3.10;;;;;;;13.41;83.92;100391.28;5096544;28;20432;-71
2021/04/11 09:13:27;;;;;;;10.30;5.47;;;;;;;13.36;80.92;100386.03;5096380;28;20464;-71
2021/04/11 09:16:03;;;;;;;6.33;3.97;;;;;;;13.29;82.28;100400.13;5096462;28;20442;-71
2021/04/11 09:18:46;;;;;;;4.10;2.40;;;;;;;13.22;83.08;100401.72;5096276;28;20486;-71
2021/04/11 09:21:32;;;;;;;9.37;5.07;;;;;;;13.24;81.88;100408.47;5096333;28;20499;-71
2021/04/11 09:24:04;;;;;;;10.60;4.20;;;;;;;13.49;79.57;100417.69;5096166;28;20464;-71
2021/04/11 09:26:48;;;;;;;5.73;4.70;;;;;;;13.84;79.68;100414.84;5096140;28;20428;-71
2021/04/11 09:29:32;;;;;;;17.00;5.00;;;;;;;14.15;78.41;100409.09;5096235;28;20429;-71
2021/04/11 09:32:26;;;;;;;9.27;4.50;;;;;;;14.28;77.58;100408.03;5095713;28;20801;-71
2021/04/11 09:35:12;;;;;;;10.80;5.90;;;;;;;14.37;77.29;100414.22;5095932;28;20491;-71
2021/04/11 09:38:03;;;;;;;6.30;5.37;;;;;;;14.52;77.98;100414.78;5095666;28;20991;-71
2021/04/11 09:40:41;;;;;;;6.73;4.93;;;;;;;14.62;76.49;100417.16;5095942;28;20428;-72
2021/04/11 09:43:24;;;;;;;7.97;4.93;;;;;;;14.77;75.75;100418.47;5094824;28;20472;-72
2021/04/11 09:46:23;;;;;;;5.50;3.77;;;;;;;14.98;75.23;100408.34;5095865;28;20416;-71
2021/04/11 09:49:08;;;;;;;8.10;4.00;;;;;;;15.08;72.96;100401.66;5061881;28;20452;-71
2021/04/11 09:52:02;;;;;;;6.73;5.83;;;;;;;15.21;72.42;100411.50;5095890;28;20424;-71
2021/04/11 09:54:40;;;;;;;7.67;4.57;;;;;;;15.37;73.96;100404.28;5095544;28;20460;-71
2021/04/11 09:57:36;;;;;;;3.83;3.10;;;;;;;15.63;75.23;100408.66;5095619;28;20937;-71
2021/04/11 10:00:24;;;;;;;5.17;3.67;;;;;;;15.75;72.75;100399.69;5095795;28;20837;-71
2021/04/11 10:03:08;;;;;;;7.03;4.33;;;;;;;15.87;71.53;100394.25;5095605;28;20436;-71
2021/04/11 10:05:48;;;;;;;9.83;3.80;;;;;;;15.91;71.94;100397.88;5095586;28;20792;-71
2021/04/11 10:08:36;;;;;;;6.40;3.50;;;;;;;15.94;71.88;100401.84;5095421;28;20790;-71
2021/04/11 10:11:15;;;;;;;5.80;4.07;;;;;;;15.96;71.93;100397.66;5077859;28;20448;-71
2021/04/11 10:14:06;;;;;;;5.23;3.63;;;;;;;15.91;71.55;100402.56;5095264;28;20535;-71
2021/04/11 10:16:42;;;;;;;6.80;3.90;;;;;;;15.83;71.87;100398.78;5096845;28;21027;-70
2021/04/11 10:19:28;;;;;;;4.77;2.90;;;;;;;15.83;71.82;100405.03;5097514;28;20960;-72
2021/04/11 10:22:08;;;;;;;5.87;3.70;;;;;;;15.86;69.42;100398.91;5095273;28;20429;-72
2021/04/11 10:24:45;;;;;;;4.77;3.50;;;;;;;15.83;70.27;100396.06;5095010;28;21043;-72
2021/04/11 10:27:21;;;;;;;7.07;2.80;;;;;;;15.92;70.82;100394.00;5094940;28;20424;-71
2021/04/11 10:29:48;;;;;;;4.40;3.00;;;;;;;15.99;69.22;100396.19;5094895;28;20428;-71
2021/04/11 10:32:22;;;;;;;4.03;3.63;;;;;;;16.08;68.29;100394.13;5094726;28;20497;-71
2021/04/11 10:34:58;;;;;;;5.77;3.60;;;;;;;16.14;69.24;100388.06;5094615;28;20513;-71
2021/04/11 10:37:31;;;;;;;4.87;3.60;;;;;;;16.17;68.25;100377.59;5094205;28;20962;-71
2021/04/11 10:40:10;;;;;;;3.30;2.83;;;;;;;16.23;66.57;100389.88;5094658;28;20849;-70
2021/04/11 10:42:48;;;;;;;6.57;4.50;;;;;;;16.28;67.39;100387.72;5094625;28;20456;-71
2021/04/11 10:45:29;;;;;;;4.53;3.03;;;;;;;16.35;66.26;100382.47;5094474;28;20428;-70
2021/04/11 10:48:28;;;;;;;4.60;3.50;;;;;;;16.55;68.66;100385.38;5094752;28;20420;-71
2021/04/11 10:51:12;;;;;;;7.70;4.23;;;;;;;16.77;67.50;100387.59;5094463;28;20428;-70
2021/04/11 10:53:54;;;;;;;5.77;3.50;;;;;;;16.87;67.62;100386.34;5094207;28;20463;-70
2021/04/11 10:56:42;;;;;;;4.40;3.40;;;;;;;17.10;69.09;100386.56;5081027;28;20438;-73
2021/04/11 10:59:32;;;;;;;15.03;3.27;;;;;;;17.15;64.31;100378.09;5070088;28;20478;-72
2021/04/11 11:02:18;;;;;;;5.50;4.00;;;;;;;17.25;66.83;100380.31;5073231;28;20421;-73
2021/04/11 11:05:16;;;;;;;9.30;4.87;;;;;;;17.55;67.22;100374.44;5072297;28;20867;-72
2021/04/11 11:07:57;;;;;;;4.10;3.53;;;;;;;17.83;65.84;100374.38;5073773;28;20483;-73
2021/04/11 11:10:34;;;;;;;4.27;3.67;;;;;;;18.14;63.83;100384.47;5053976;28;20504;-72
2021/04/11 11:13:15;;;;;;;3.43;2.90;;;;;;;18.40;62.34;100373.72;5053570;28;20438;-72
2021/04/11 11:15:58;;;;;;;3.20;2.90;;;;;;;18.78;64.05;100371.41;5053463;28;20790;-72
2021/04/11 11:18:52;;;;;;;3.40;2.70;;;;;;;19.21;60.85;100372.97;5053746;28;20489;-72
2021/04/11 11:21:43;;;;;;;3.23;2.70;;;;;;;20.14;58.68;100374.53;5054006;28;20430;-72
2021/04/11 11:24:22;;;;;;;7.87;3.33;;;;;;;20.90;56.83;100377.13;5051799;28;20470;-72
2021/04/11 11:27:09;;;;;;;3.40;2.50;;;;;;;22.11;53.27;100377.44;5053718;28;20422;-72
2021/04/11 11:30:05;;;;;;;6.73;3.00;;;;;;;22.56;46.80;100369.81;5053741;28;20788;-72
2021/04/11 11:32:36;;;;;;;4.60;2.73;;;;;;;23.07;48.01;100375.16;5053653;28;20434;-72
2021/04/11 11:35:05;;;;;;;2.90;2.37;;;;;;;23.81;48.22;100370.88;5053537;28;20478;-72
2021/04/11 11:37:45;;;;;;;6.33;1.90;;;;;;;24.72;46.42;100372.28;5053161;28;20947;-72
2021/04/11 11:40:21;;;;;;;3.73;2.87;;;;;;;25.34;43.10;100377.09;5053513;28;20494;-72
2021/04/11 11:43:04;;;;;;;2.10;1.57;;;;;;;25.60;41.76;100372.94;5053409;28;20502;-72
2021/04/11 11:45:39;;;;;;;2.80;1.83;;;;;;;25.96;42.28;100372.66;5053435;28;20553;-72
2021/04/11 11:48:30;;;;;;;2.50;2.00;;;;;;;25.91;40.49;100371.09;5053100;28;20906;-73
2021/04/11 11:51:01;;;;;;;2.80;2.00;;;;;;;26.08;40.08;100367.38;5053379;28;20489;-72
2021/04/11 11:53:33;;;;;;;2.40;1.80;;;;;;;25.66;36.90;100362.97;5053240;28;20458;-72
2021/04/11 11:56:18;;;;;;;2.20;1.73;;;;;;;24.99;40.78;100351.16;5053336;28;20426;-72
2021/04/11 11:58:51;;;;;;;12.83;2.70;;;;;;;24.53;39.73;100354.16;5053255;28;20466;-72
2021/04/11 12:01:28;;;;;;;4.37;2.20;;;;;;;23.88;39.92;100351.53;5052932;28;20766;-72
2021/04/11 12:04:11;;;;;;;2.27;1.63;;;;;;;23.26;42.42;100356.63;5052988;28;20477;-72
2021/04/11 12:06:43;;;;;;;2.87;2.37;;;;;;;23.10;43.89;100349.50;5052727;28;20437;-72